Time;durP1;ratioP1;P1;durP2;ratioP2;P2;SDS_P1;SDS_P2;PMS_P1;PMS_P2;Temp;Humidity;BMP_temperature;BMP_pressure;BME280_temperature;BME280_humidity;BME280_pressure;Samples;Min_cycle;Max_cycle;Signal;HPM_P1;HPM_P2
2021/06/29 00:03:06;;;;;;;10.20;7.15;;;;;;;20.67;80.12;101300.47;6290105;28;20215;-75
2021/06/29 00:06:12;;;;;;;8.32;7.55;;;;;;;20.72;80.38;101297.69;6289889;28;20193;-75
2021/06/29 00:09:18;;;;;;;8.57;7.82;;;;;;;20.77;79.72;101299.63;6289900;28;20255;-75
2021/06/29 00:12:22;;;;;;;9.32;8.10;;;;;;;20.61;80.35;101301.53;6290161;28;20191;-75
2021/06/29 00:15:28;;;;;;;7.97;7.10;;;;;;;20.64;80.39;101289.91;6290074;28;20238;-75
2021/06/29 00:18:32;;;;;;;9.73;7.20;;;;;;;20.75;80.17;101299.91;6289625;28;20184;-75
2021/06/29 00:21:37;;;;;;;8.00;7.25;;;;;;;20.73;79.83;101293.78;6297055;28;20294;-75
2021/06/29 00:24:43;;;;;;;8.07;7.35;;;;;;;20.72;79.37;101292.16;6314454;28;20259;-76
2021/06/29 00:27:47;;;;;;;10.95;7.47;;;;;;;20.67;79.32;101289.38;6313345;28;20490;-75
2021/06/29 00:30:51;;;;;;;9.10;7.72;;;;;;;20.71;79.43;101290.47;6313074;28;20270;-75
2021/06/29 00:33:55;;;;;;;8.80;8.02;;;;;;;20.63;79.32;101293.78;6312869;28;20530;-76
2021/06/29 00:36:59;;;;;;;10.15;6.95;;;;;;;20.72;79.15;101297.69;6312940;28;20373;-75
2021/06/29 00:40:07;;;;;;;9.90;7.20;;;;;;;20.71;79.15;101284.94;6314086;28;20253;-75
2021/06/29 00:43:14;;;;;;;10.90;7.97;;;;;;;20.61;79.33;101284.91;6314031;28;20187;-75
2021/06/29 00:46:19;;;;;;;8.18;7.38;;;;;;;20.57;79.47;101279.06;6314219;28;20230;-75
2021/06/29 00:49:23;;;;;;;9.07;7.43;;;;;;;20.38;80.79;101291.75;6312713;28;20222;-75
2021/06/29 00:52:28;;;;;;;8.02;7.38;;;;;;;20.46;80.27;101287.63;6313992;28;20183;-76
2021/06/29 00:55:35;;;;;;;8.60;7.15;;;;;;;20.50;80.38;101289.56;6313503;28;20246;-75
2021/06/29 00:58:39;;;;;;;8.43;7.70;;;;;;;20.47;80.36;101283.72;6313466;28;20247;-75
2021/06/29 01:01:43;;;;;;;8.27;7.47;;;;;;;20.55;79.41;101283.22;6312379;28;20471;-75
2021/06/29 01:04:48;;;;;;;8.23;7.53;;;;;;;20.47;80.41;101289.28;6313583;28;20222;-75
2021/06/29 01:07:52;;;;;;;7.63;7.13;;;;;;;20.39;80.74;101287.06;6311607;28;20534;-75
2021/06/29 01:10:57;;;;;;;8.15;7.53;;;;;;;20.38;80.49;101285.38;6313143;28;20183;-75
2021/06/29 01:14:11;;;;;;;6.85;6.45;;;;;;;20.43;80.21;101282.63;6313117;28;20274;-75
2021/06/29 01:17:15;;;;;;;7.85;7.22;;;;;;;20.44;79.98;101273.22;6312966;28;20199;-76
2021/06/29 01:20:25;;;;;;;9.95;7.20;;;;;;;20.34;80.41;101270.38;6313241;28;20183;-75
2021/06/29 01:23:32;;;;;;;11.02;8.13;;;;;;;20.34;80.13;101262.91;6312700;28;20419;-75
2021/06/29 01:26:41;;;;;;;8.80;7.35;;;;;;;20.40;80.19;101269.28;6313268;28;20183;-76
2021/06/29 01:30:57;;;;;;;7.90;7.10;;;;;;;20.34;80.35;101267.59;6313254;28;20188;-75
2021/06/29 01:33:19;;;;;;;8.15;7.35;;;;;;;20.37;80.15;101265.13;6312392;28;20199;-75
2021/06/29 01:36:27;;;;;;;13.10;7.45;;;;;;;20.33;80.50;101263.19;6313003;28;20183;-75
2021/06/29 01:39:31;;;;;;;8.00;7.25;;;;;;;20.34;80.43;101259.28;6312684;28;20183;-75
2021/06/29 01:42:35;;;;;;;7.70;7.15;;;;;;;20.17;80.98;101258.63;6312683;28;20183;-76
2021/06/29 01:45:42;;;;;;;10.40;7.40;;;;;;;20.18;80.98;101271.41;6312999;28;20255;-75
2021/06/29 01:48:47;;;;;;;7.75;7.07;;;;;;;20.30;80.16;101277.56;6312879;28;20184;-75
2021/06/29 01:51:56;;;;;;;7.80;7.15;;;;;;;20.23;80.08;101271.41;6312561;28;20184;-75
2021/06/29 01:55:00;;;;;;;8.45;7.57;;;;;;;20.25;79.98;101258.16;6312431;28;20275;-76
2021/06/29 01:58:04;;;;;;;8.00;7.25;;;;;;;20.21;80.58;101268.91;6311698;28;20191;-75
2021/06/29 02:01:08;;;;;;;8.70;7.55;;;;;;;20.12;81.14;101264.16;6312672;28;20184;-75
2021/06/29 02:04:13;;;;;;;8.02;7.25;;;;;;;20.17;80.28;101267.78;6311215;28;20187;-75
2021/06/29 02:07:18;;;;;;;7.68;7.10;;;;;;;20.20;80.41;101260.88;6311340;28;20405;-75
2021/06/29 02:10:22;;;;;;;7.75;7.15;;;;;;;20.20;80.18;101255.34;6311212;28;20405;-74
2021/06/29 02:13:27;;;;;;;7.78;7.00;;;;;;;20.17;80.48;101250.31;6312235;28;20184;-75
2021/06/29 02:16:31;;;;;;;8.18;7.30;;;;;;;20.11;80.94;101259.75;6312757;28;20274;-75
2021/06/29 02:19:35;;;;;;;8.30;7.22;;;;;;;20.09;81.21;101261.91;6314367;28;20184;-75
2021/06/29 02:22:41;;;;;;;8.15;7.35;;;;;;;20.20;79.94;101255.34;6300781;28;20263;-75
2021/06/29 02:25:45;;;;;;;7.95;7.25;;;;;;;20.14;80.50;101257.25;6292352;28;20215;-75
2021/06/29 02:28:49;;;;;;;8.05;7.30;;;;;;;20.14;80.72;101256.41;6291254;28;20246;-75
2021/06/29 02:31:53;;;;;;;7.05;6.45;;;;;;;20.12;81.09;101264.16;6292335;28;20183;-75
2021/06/29 02:34:57;;;;;;;7.97;7.20;;;;;;;20.14;80.78;101256.41;6292045;28;20291;-75
2021/06/29 02:38:03;;;;;;;8.00;6.93;;;;;;;20.15;80.40;101253.38;6290327;28;20384;-75
2021/06/29 02:41:07;;;;;;;7.63;6.93;;;;;;;20.10;80.80;101256.13;6292461;28;20238;-75
2021/06/29 02:44:12;;;;;;;7.15;6.45;;;;;;;20.12;80.04;101253.06;6291134;28;20419;-75
2021/06/29 02:47:16;;;;;;;7.85;6.07;;;;;;;20.17;79.59;101258.63;6292206;28;20184;-75
2021/06/29 02:50:21;;;;;;;6.30;5.80;;;;;;;20.20;78.65;101255.34;6292080;28;20223;-75
2021/06/29 02:53:26;;;;;;;6.88;6.38;;;;;;;20.19;78.42;101259.19;6291771;28;20185;-76
2021/06/29 02:56:39;;;;;;;9.52;5.55;;;;;;;20.16;78.03;101257.00;6291052;28;20279;-76
2021/06/29 02:59:44;;;;;;;7.68;6.43;;;;;;;20.16;77.73;101249.50;6291681;28;20184;-75
2021/06/29 03:02:48;;;;;;;6.10;5.70;;;;;;;20.22;77.04;101248.41;6290598;28;20375;-76
2021/06/29 03:05:52;;;;;;;6.15;5.75;;;;;;;20.21;77.84;101254.25;6291451;28;20219;-75
2021/06/29 03:08:58;;;;;;;6.40;5.88;;;;;;;20.22;78.57;101248.41;6291420;28;20216;-75
2021/06/29 03:12:02;;;;;;;6.15;5.65;;;;;;;20.29;77.67;101248.19;6291767;28;20195;-76
2021/06/29 03:15:07;;;;;;;6.55;6.03;;;;;;;20.23;77.37;101243.72;6290175;28;20227;-76
2021/06/29 03:18:11;;;;;;;6.57;5.93;;;;;;;20.28;77.94;101252.06;6291341;28;20184;-76
2021/06/29 03:21:17;;;;;;;6.35;5.85;;;;;;;20.30;78.30;101238.78;6295681;28;20223;-76
2021/06/29 03:24:22;;;;;;;5.90;5.47;;;;;;;20.31;78.82;101243.22;6316065;28;20222;-75
2021/06/29 03:27:26;;;;;;;6.20;5.65;;;;;;;20.31;77.96;101240.47;6315878;28;20215;-75
2021/06/29 03:30:30;;;;;;;6.13;5.53;;;;;;;20.35;78.32;101244.34;6315560;28;20279;-75
2021/06/29 03:33:34;;;;;;;6.65;6.15;;;;;;;20.37;77.87;101239.34;6314837;28;20222;-75
2021/06/29 03:36:39;;;;;;;6.53;6.05;;;;;;;20.31;77.85;101246.00;6314640;28;20286;-76
2021/06/29 03:39:44;;;;;;;7.30;5.88;;;;;;;20.33;78.26;101238.25;6314638;28;20190;-75
2021/06/29 03:42:48;;;;;;;6.40;5.85;;;;;;;20.39;77.95;101245.47;6315946;28;20251;-75
2021/06/29 03:45:52;;;;;;;6.80;5.50;;;;;;;20.42;78.29;101247.69;6297758;28;20241;-75
2021/06/29 03:48:57;;;;;;;6.97;5.90;;;;;;;20.40;78.11;101244.34;6314556;28;20413;-76
2021/06/29 03:52:01;;;;;;;8.02;5.25;;;;;;;20.43;77.53;101243.81;6315809;28;20215;-75
2021/06/29 03:55:09;;;;;;;5.90;5.53;;;;;;;20.45;78.06;101238.81;6315632;28;20223;-76
2021/06/29 03:58:14;;;;;;;5.82;5.43;;;;;;;20.48;77.42;101246.59;6314304;28;20282;-76
2021/06/29 04:01:18;;;;;;;5.82;5.30;;;;;;;20.53;76.37;101249.38;6315511;28;20190;-75
2021/06/29 04:04:22;;;;;;;5.75;5.25;;;;;;;20.56;76.69;101238.59;6313962;28;20251;-76
2021/06/29 04:07:28;;;;;;;5.70;5.40;;;;;;;20.58;76.34;101232.78;6315265;28;20233;-76
2021/06/29 04:10:34;;;;;;;6.18;5.47;;;;;;;20.58;76.46;101235.53;6314987;28;20183;-76
2021/06/29 04:13:38;;;;;;;5.85;5.55;;;;;;;20.67;76.34;101233.91;6313925;28;20358;-76
2021/06/29 04:16:43;;;;;;;5.43;5.03;;;;;;;20.65;76.25;101229.75;6315228;28;20223;-76
2021/06/29 04:19:47;;;;;;;5.78;5.38;;;;;;;20.72;76.53;101228.38;6315139;28;20205;-76
2021/06/29 04:22:51;;;;;;;6.13;5.70;;;;;;;20.71;77.38;101232.25;6313945;28;20235;-76
2021/06/29 04:25:56;;;;;;;8.40;5.55;;;;;;;20.74;76.08;101228.94;6313514;28;20194;-76
2021/06/29 04:29:01;;;;;;;5.45;5.15;;;;;;;20.76;75.68;101226.72;6314789;28;20254;-76
2021/06/29 04:32:06;;;;;;;5.43;5.03;;;;;;;20.76;74.93;101228.63;6314469;28;20191;-75
2021/06/29 04:35:12;;;;;;;5.32;5.13;;;;;;;20.74;74.63;101223.38;6314576;28;20207;-76
2021/06/29 04:38:16;;;;;;;5.63;5.18;;;;;;;20.82;75.00;101230.31;6314838;28;20261;-76
2021/06/29 04:41:22;;;;;;;5.80;5.32;;;;;;;20.86;74.81;101221.16;6312942;28;20192;-76
2021/06/29 04:44:27;;;;;;;11.30;5.70;;;;;;;20.86;74.41;101221.16;6314063;28;20188;-76
2021/06/29 04:47:36;;;;;;;5.82;5.28;;;;;;;20.93;74.25;101232.81;6313417;28;20286;-76
2021/06/29 04:50:42;;;;;;;7.10;5.18;;;;;;;20.97;74.26;101217.31;6314431;28;20254;-76
2021/06/29 04:53:49;;;;;;;5.53;5.03;;;;;;;20.98;74.13;101230.03;6314224;28;20229;-76
2021/06/29 04:56:54;;;;;;;6.28;5.07;;;;;;;20.99;75.13;101219.78;6314164;28;20211;-76
2021/06/29 04:59:59;;;;;;;5.65;5.10;;;;;;;21.04;74.29;101217.84;6313123;28;20191;-75
2021/06/29 05:03:05;;;;;;;5.47;4.97;;;;;;;21.04;74.61;101223.41;6313919;28;20184;-75
2021/06/29 05:06:12;;;;;;;6.75;5.93;;;;;;;21.12;74.80;101225.66;6312442;28;20379;-76
2021/06/29 05:09:16;;;;;;;6.60;5.32;;;;;;;21.17;74.25;101222.88;6312417;28;20191;-75
2021/06/29 05:12:22;;;;;;;5.55;5.05;;;;;;;21.17;74.77;101217.34;6312701;28;20470;-75
2021/06/29 05:15:26;;;;;;;6.63;5.80;;;;;;;21.24;75.22;101216.22;6313440;28;20199;-76
2021/06/29 05:18:32;;;;;;;11.57;5.68;;;;;;;21.33;73.92;101211.78;6312288;28;20470;-76
2021/06/29 05:21:37;;;;;;;10.40;5.32;;;;;;;21.50;72.51;101215.06;6313160;28;20242;-76
2021/06/29 05:24:41;;;;;;;5.85;5.32;;;;;;;22.01;73.54;101208.28;6313295;28;20271;-76
2021/06/29 05:27:46;;;;;;;5.45;5.10;;;;;;;22.75;70.41;101207.38;6294641;28;20532;-75
2021/06/29 05:30:50;;;;;;;17.98;5.80;;;;;;;23.15;68.16;101203.44;6311772;28;20533;-76
2021/06/29 05:33:55;;;;;;;8.20;5.28;;;;;;;23.44;66.29;101202.38;6313310;28;20183;-76
2021/06/29 05:36:59;;;;;;;8.25;5.55;;;;;;;23.68;65.43;101207.94;6311756;28;20566;-76
2021/06/29 05:40:10;;;;;;;10.18;4.85;;;;;;;23.79;65.00;101208.66;6313185;28;20229;-76
2021/06/29 05:43:16;;;;;;;10.13;5.40;;;;;;;23.84;63.96;101200.25;6312727;28;20190;-75
2021/06/29 05:46:20;;;;;;;6.90;5.45;;;;;;;23.66;64.47;101205.47;6312861;28;20259;-75
2021/06/29 05:49:25;;;;;;;16.05;5.60;;;;;;;23.57;62.43;101200.84;6312661;28;20255;-75
2021/06/29 05:52:29;;;;;;;9.57;5.78;;;;;;;23.58;61.54;101203.31;6312415;28;20183;-75
2021/06/29 05:55:33;;;;;;;6.82;4.80;;;;;;;23.76;60.99;101195.31;6312381;28;20183;-75
2021/06/29 05:58:51;;;;;;;5.53;4.95;;;;;;;23.59;58.97;101196.66;6312391;28;20183;-75
2021/06/29 06:01:56;;;;;;;7.32;4.85;;;;;;;23.65;59.24;101186.28;6311597;28;20467;-75
2021/06/29 06:05:00;;;;;;;5.75;4.68;;;;;;;23.59;58.79;101199.44;6312686;28;20190;-75
2021/06/29 06:08:05;;;;;;;5.05;4.65;;;;;;;23.65;57.56;101184.31;6312472;28;20195;-75
2021/06/29 06:11:09;;;;;;;6.93;4.30;;;;;;;23.59;57.49;101188.28;6312215;28;20184;-75
2021/06/29 06:14:15;;;;;;;5.28;4.78;;;;;;;23.77;58.09;101185.84;6311985;28;20184;-75
2021/06/29 06:17:19;;;;;;;11.55;4.63;;;;;;;23.74;56.96;101190.06;6311869;28;20573;-75
2021/06/29 06:20:23;;;;;;;5.25;4.40;;;;;;;23.72;56.67;101177.56;6312269;28;20184;-75
2021/06/29 06:23:27;;;;;;;7.97;4.03;;;;;;;23.74;56.57;101183.66;6311124;28;20277;-75
2021/06/29 06:26:31;;;;;;;8.15;4.00;;;;;;;23.78;54.42;101179.16;6311188;28;20251;-75
2021/06/29 06:29:37;;;;;;;6.05;4.00;;;;;;;23.84;54.53;101194.69;6310353;28;20292;-75
2021/06/29 06:32:41;;;;;;;7.00;4.70;;;;;;;23.78;51.50;101179.16;6310872;28;20456;-75
2021/06/29 06:35:45;;;;;;;4.18;3.85;;;;;;;23.90;53.17;101182.34;6310766;28;20290;-75
2021/06/29 06:38:49;;;;;;;4.43;3.97;;;;;;;23.97;52.59;101182.81;6311477;28;20229;-77
2021/06/29 06:41:53;;;;;;;4.15;3.88;;;;;;;23.91;52.55;101190.41;6311463;28;20237;-75
2021/06/29 06:45:00;;;;;;;3.97;3.67;;;;;;;24.02;52.10;101179.97;6311338;28;20195;-75
2021/06/29 06:48:05;;;;;;;4.28;3.97;;;;;;;24.10;52.59;101179.34;6310827;28;20259;-77
2021/06/29 06:51:10;;;;;;;4.63;4.32;;;;;;;24.10;53.03;101182.13;6312024;28;20237;-75
2021/06/29 06:54:14;;;;;;;4.03;3.80;;;;;;;24.00;53.04;101182.22;6311680;28;20184;-74
2021/06/29 06:57:18;;;;;;;4.63;4.25;;;;;;;24.13;52.93;101192.69;6311654;28;20211;-76
2021/06/29 07:00:26;;;;;;;9.60;4.55;;;;;;;24.21;52.96;101186.44;6311970;28;20183;-74
2021/06/29 07:03:30;;;;;;;6.18;4.10;;;;;;;24.31;52.49;101182.69;6310396;28;20215;-75
2021/06/29 07:06:34;;;;;;;4.40;3.97;;;;;;;24.37;52.68;101182.31;6313414;28;20529;-75
2021/06/29 07:09:38;;;;;;;5.47;4.07;;;;;;;24.41;52.16;101188.13;6317442;28;20501;-75
2021/06/29 07:12:42;;;;;;;8.88;3.63;;;;;;;24.50;51.83;101181.56;6316236;28;20255;-75
2021/06/29 07:15:50;;;;;;;6.63;4.03;;;;;;;24.61;51.17;101188.66;6315591;28;20273;-75
2021/06/29 07:18:54;;;;;;;8.05;3.83;;;;;;;24.68;51.74;101182.69;6315681;28;20262;-75
2021/06/29 07:21:59;;;;;;;3.88;3.72;;;;;;;24.68;51.02;101183.50;6315491;28;20239;-75
2021/06/29 07:25:06;;;;;;;6.30;3.80;;;;;;;24.88;50.67;101172.06;6315650;28;20191;-75
2021/06/29 07:28:12;;;;;;;6.15;4.22;;;;;;;25.01;50.78;101181.66;6315552;28;20227;-75
2021/06/29 07:31:19;;;;;;;4.38;3.80;;;;;;;25.11;49.43;101161.09;6314337;28;20379;-75
2021/06/29 07:34:23;;;;;;;6.85;3.97;;;;;;;25.15;48.75;101170.50;6315984;28;20190;-75
2021/06/29 07:37:27;;;;;;;4.07;3.78;;;;;;;25.20;47.49;101167.63;6314194;28;20273;-75
2021/06/29 07:40:31;;;;;;;3.72;3.42;;;;;;;25.11;47.13;101169.47;6315271;28;20509;-75
2021/06/29 07:43:36;;;;;;;3.75;3.60;;;;;;;25.17;48.92;101168.22;6315204;28;20229;-75
2021/06/29 07:46:41;;;;;;;3.97;3.70;;;;;;;25.29;49.98;101171.38;6315570;28;20248;-75
2021/06/29 07:49:45;;;;;;;3.80;3.67;;;;;;;25.25;50.38;101165.56;6313996;28;20529;-76
2021/06/29 07:52:49;;;;;;;4.82;4.13;;;;;;;25.35;48.67;101158.97;6315204;28;20184;-75
2021/06/29 07:55:53;;;;;;;3.97;3.72;;;;;;;25.39;47.67;101154.44;6297341;28;20241;-77
2021/06/29 07:58:58;;;;;;;5.40;3.80;;;;;;;25.53;48.86;101155.28;6314293;28;20214;-75
2021/06/29 08:02:03;;;;;;;3.67;3.53;;;;;;;25.54;47.21;101156.13;6314614;28;20230;-76
2021/06/29 08:05:09;;;;;;;6.82;3.92;;;;;;;25.66;48.16;101148.88;6314640;28;20255;-75
2021/06/29 08:08:14;;;;;;;4.10;3.72;;;;;;;25.65;47.30;101147.25;6314596;28;20203;-75
2021/06/29 08:11:18;;;;;;;4.18;3.83;;;;;;;25.69;46.54;101148.28;6314875;28;20183;-75
2021/06/29 08:14:22;;;;;;;4.38;4.18;;;;;;;25.45;46.75;101164.34;6314281;28;20183;-75
2021/06/29 08:17:29;;;;;;;3.85;3.65;;;;;;;25.35;47.83;101158.97;6313980;28;20413;-75
2021/06/29 08:20:33;;;;;;;4.15;3.90;;;;;;;25.53;47.90;101149.72;6314700;28;20222;-75
2021/06/29 08:23:39;;;;;;;5.28;4.30;;;;;;;25.63;48.27;101149.50;6313997;28;20322;-75
2021/06/29 08:26:44;;;;;;;4.57;3.80;;;;;;;25.77;48.29;101143.94;6313234;28;20269;-75
2021/06/29 08:29:52;;;;;;;4.30;4.10;;;;;;;25.85;48.26;101141.25;6314078;28;20266;-75
2021/06/29 08:32:58;;;;;;;14.10;4.68;;;;;;;26.02;46.86;101147.00;6314317;28;20263;-75
2021/06/29 08:36:03;;;;;;;4.28;3.72;;;;;;;26.07;45.86;101149.69;6313087;28;20337;-75
2021/06/29 08:39:07;;;;;;;4.45;3.38;;;;;;;26.15;45.43;101139.78;6313975;28;20250;-75
2021/06/29 08:42:12;;;;;;;5.30;3.95;;;;;;;26.14;44.52;101151.28;6313857;28;20246;-75
2021/06/29 08:45:17;;;;;;;3.75;3.55;;;;;;;26.13;45.49;101153.25;6312757;28;20206;-75
2021/06/29 08:48:22;;;;;;;3.78;3.60;;;;;;;25.97;47.19;101149.91;6313422;28;20191;-75
2021/06/29 08:51:26;;;;;;;4.05;3.70;;;;;;;26.01;45.62;101153.72;6313719;28;20259;-75
2021/06/29 08:54:30;;;;;;;4.28;3.97;;;;;;;26.06;45.26;101148.03;6312515;28;20183;-75
2021/06/29 08:57:35;;;;;;;5.85;4.25;;;;;;;26.14;45.61;101151.28;6313112;28;20183;-75
2021/06/29 09:00:39;;;;;;;4.07;3.65;;;;;;;26.09;45.08;101152.19;6311850;28;20238;-76
2021/06/29 09:03:44;;;;;;;4.05;3.85;;;;;;;25.84;45.18;101139.56;6312965;28;20216;-75
2021/06/29 09:06:48;;;;;;;4.00;3.78;;;;;;;25.84;46.51;101145.16;6312955;28;20230;-75
2021/06/29 09:09:55;;;;;;;6.18;3.90;;;;;;;25.83;45.85;101148.28;6313229;28;20187;-75
2021/06/29 09:13:00;;;;;;;4.10;3.90;;;;;;;25.93;46.44;101148.91;6313437;28;20251;-75
2021/06/29 09:16:05;;;;;;;4.35;3.90;;;;;;;25.97;46.09;101155.50;6312863;28;20199;-75
2021/06/29 09:19:11;;;;;;;5.45;4.10;;;;;;;26.10;46.82;101153.84;6312603;28;20246;-76
2021/06/29 09:22:30;;;;;;;8.40;3.50;;;;;;;26.17;46.13;101142.28;6312548;28;20235;-76
2021/06/29 09:25:35;;;;;;;3.97;3.65;;;;;;;26.26;46.83;101143.19;6311807;28;20377;-75
2021/06/29 09:28:42;;;;;;;4.25;3.92;;;;;;;26.09;45.75;101130.63;6312197;28;20250;-76
2021/06/29 09:31:47;;;;;;;4.00;3.60;;;;;;;26.22;45.73;101136.56;6312805;28;20195;-77
2021/06/29 09:35:04;;;;;;;3.97;3.58;;;;;;;26.26;45.66;101129.19;6312567;28;20244;-76
2021/06/29 09:38:12;;;;;;;15.27;3.60;;;;;;;26.27;45.85;101126.06;6312183;28;20471;-74
2021/06/29 09:41:19;;;;;;;3.65;3.25;;;;;;;26.32;45.68;101125.94;6313741;28;20184;-75
2021/06/29 09:44:24;;;;;;;3.47;3.38;;;;;;;26.32;44.56;101119.56;6313166;28;20215;-76
2021/06/29 09:47:29;;;;;;;4.35;3.33;;;;;;;26.35;44.41;101122.53;6313602;28;20294;-76
2021/06/29 09:50:58;;;;;;;5.22;3.95;;;;;;;26.39;43.08;101117.13;6295374;28;20291;-77
2021/06/29 09:54:05;;;;;;;4.90;3.05;;;;;;;26.34;44.32;101117.25;6312344;28;20270;-77
2021/06/29 09:57:24;;;;;;;3.10;3.00;;;;;;;26.35;43.91;101121.69;6311944;28;20373;-76
2021/06/29 10:00:42;;;;;;;3.17;2.97;;;;;;;26.29;42.39;101118.22;6313370;28;20271;-75
2021/06/29 10:03:50;;;;;;;50.80;5.55;;;;;;;26.44;44.57;101117.00;6312922;28;20184;-75
2021/06/29 10:06:56;;;;;;;4.15;3.00;;;;;;;26.33;42.69;101112.78;6312915;28;20194;-76
2021/06/29 10:10:16;;;;;;;4.43;3.17;;;;;;;26.28;43.28;101115.72;6313221;28;20317;-75
2021/06/29 10:13:20;;;;;;;3.92;3.80;;;;;;;26.34;44.80;101115.28;6312352;28;20404;-76
2021/06/29 10:16:28;;;;;;;3.85;3.50;;;;;;;26.43;44.42;101118.16;6311567;28;20237;-76
2021/06/29 10:19:47;;;;;;;4.10;3.83;;;;;;;26.34;44.91;101114.47;6312335;28;20585;-76
2021/06/29 10:22:54;;;;;;;3.45;3.20;;;;;;;26.39;44.42;101111.53;6312822;28;20299;-75
2021/06/29 10:25:59;;;;;;;3.47;3.10;;;;;;;26.42;45.33;101111.75;6313347;28;20187;-76
2021/06/29 10:29:06;;;;;;;4.53;3.17;;;;;;;26.36;44.25;101106.56;6311999;28;20202;-76
2021/06/29 10:32:13;;;;;;;3.50;3.40;;;;;;;26.35;45.58;101102.94;6312468;28;20190;-76
2021/06/29 10:35:18;;;;;;;3.97;3.45;;;;;;;26.46;45.22;101093.16;6313137;28;20184;-77
2021/06/29 10:38:24;;;;;;;4.05;3.67;;;;;;;26.52;45.53;101089.13;6313007;28;20192;-76
2021/06/29 10:41:34;;;;;;;12.38;3.13;;;;;;;26.42;44.78;101089.38;6315606;28;20211;-75
2021/06/29 10:44:40;;;;;;;3.83;3.10;;;;;;;26.55;44.24;101104.44;6317622;28;20184;-76
2021/06/29 10:47:44;;;;;;;3.92;3.25;;;;;;;26.53;44.11;101096.34;6299335;28;20500;-76
2021/06/29 10:50:49;;;;;;;5.07;3.45;;;;;;;26.44;44.67;101087.06;6317276;28;20254;-76
2021/06/29 10:53:54;;;;;;;10.32;4.03;;;;;;;26.47;45.62;101085.63;6316676;28;20215;-76
2021/06/29 10:56:58;;;;;;;3.38;3.17;;;;;;;26.37;47.06;101094.25;6316314;28;20183;-77
2021/06/29 11:00:22;;;;;;;4.93;3.42;;;;;;;26.41;45.31;101100.84;6316514;28;20249;-76
2021/06/29 11:03:38;;;;;;;4.43;3.55;;;;;;;26.40;44.31;101083.25;6315344;28;20187;-76
2021/06/29 11:06:45;;;;;;;4.05;3.80;;;;;;;26.31;45.34;101092.72;6316471;28;20191;-76
2021/06/29 11:09:55;;;;;;;3.90;3.40;;;;;;;26.26;44.57;101090.88;6316705;28;20230;-75
2021/06/29 11:13:01;;;;;;;7.07;3.17;;;;;;;26.33;44.92;101079.22;6316978;28;20184;-76
2021/06/29 11:16:05;;;;;;;3.10;3.03;;;;;;;26.41;44.59;101076.50;6316464;28;20237;-76
2021/06/29 11:19:11;;;;;;;3.42;3.15;;;;;;;26.43;44.96;101070.59;6316115;28;20261;-76
2021/06/29 11:22:44;;;;;;;3.10;3.00;;;;;;;26.54;46.21;101069.19;6314945;28;20302;-75
2021/06/29 11:25:53;;;;;;;3.90;3.80;;;;;;;26.62;45.76;101068.44;6313164;28;20200;-76
2021/06/29 11:29:17;;;;;;;4.35;3.30;;;;;;;26.48;45.94;101071.28;6314814;28;20199;-76
2021/06/29 11:32:30;;;;;;;95.97;12.93;;;;;;;26.57;45.93;101066.59;6315786;28;20215;-76
2021/06/29 11:35:40;;;;;;;5.70;3.70;;;;;;;26.71;45.58;101058.13;6314529;28;20442;-75
2021/06/29 11:38:44;;;;;;;7.07;3.63;;;;;;;26.81;44.30;101063.47;6314474;28;20188;-75
2021/06/29 11:41:54;;;;;;;6.32;3.35;;;;;;;26.95;44.85;101069.00;6315281;28;20274;-75
2021/06/29 11:45:04;;;;;;;3.20;2.90;;;;;;;27.05;44.71;101052.75;6315113;28;20251;-76
2021/06/29 11:48:43;;;;;;;10.95;3.30;;;;;;;27.18;44.33;101057.44;6314364;28;20522;-75
2021/06/29 11:51:56;;;;;;;9.50;3.20;;;;;;;27.16;43.73;101048.53;6316869;28;20219;-75
2021/06/29 11:55:05;;;;;;;13.88;3.72;;;;;;;27.20;44.53;101049.53;6316440;28;20213;-76
2021/06/29 11:58:12;;;;;;;4.07;2.90;;;;;;;27.01;44.91;101046.16;6315872;28;20261;-76
2021/06/29 12:01:16;;;;;;;12.20;3.65;;;;;;;27.20;45.07;101037.50;6316384;28;20267;-75
2021/06/29 12:04:20;;;;;;;3.33;3.20;;;;;;;27.29;45.47;101036.41;6316197;28;20190;-76
2021/06/29 12:07:34;;;;;;;3.05;2.88;;;;;;;27.31;45.09;101034.09;6315941;28;20190;-76
2021/06/29 12:10:41;;;;;;;5.47;3.10;;;;;;;27.34;45.77;101033.47;6316318;28;20370;-76
2021/06/29 12:13:47;;;;;;;3.78;3.47;;;;;;;27.41;44.80;101027.41;6315439;28;20183;-77
2021/06/29 12:16:51;;;;;;;7.00;4.05;;;;;;;27.33;44.69;101020.59;6316074;28;20267;-76
2021/06/29 12:20:00;;;;;;;4.40;2.90;;;;;;;27.38;43.51;101015.97;6315104;28;20211;-77
2021/06/29 12:23:07;;;;;;;5.50;2.97;;;;;;;27.44;44.34;101020.31;6314758;28;20231;-76
2021/06/29 12:26:12;;;;;;;5.65;2.75;;;;;;;27.42;43.22;101017.84;6315156;28;20251;-75
2021/06/29 12:29:29;;;;;;;2.80;2.70;;;;;;;27.23;42.28;101026.50;6314573;28;20183;-76
2021/06/29 12:32:42;;;;;;;3.72;2.90;;;;;;;27.27;42.01;101027.47;6314464;28;20242;-76
2021/06/29 12:35:49;;;;;;;2.70;2.60;;;;;;;27.31;42.30;101028.50;6314990;28;20184;-75
2021/06/29 12:38:55;;;;;;;3.30;2.88;;;;;;;27.29;42.38;101024.38;6315404;28;20183;-75
2021/06/29 12:42:00;;;;;;;3.33;3.10;;;;;;;27.18;42.43;101018.22;6314041;28;20540;-75
2021/06/29 12:45:11;;;;;;;2.65;2.55;;;;;;;27.06;42.71;101009.63;6314333;28;20267;-75
2021/06/29 12:48:17;;;;;;;7.18;2.88;;;;;;;27.01;43.42;101018.16;6313995;28;20246;-75
2021/06/29 12:51:21;;;;;;;2.78;2.67;;;;;;;27.05;43.98;101013.56;6315107;28;20287;-75
2021/06/29 12:54:25;;;;;;;3.00;2.80;;;;;;;27.18;44.21;101007.03;6312584;28;20412;-76
2021/06/29 12:57:29;;;;;;;4.32;3.00;;;;;;;27.22;43.82;101007.22;6313201;28;20250;-75
2021/06/29 13:00:39;;;;;;;4.50;3.00;;;;;;;27.41;44.93;101001.34;6313435;28;20211;-75
2021/06/29 13:03:43;;;;;;;5.32;2.83;;;;;;;27.41;44.51;100998.56;6312573;28;20215;-75
2021/06/29 13:06:48;;;;;;;11.25;3.15;;;;;;;27.52;44.06;100994.31;6312077;28;20451;-75
2021/06/29 13:10:05;;;;;;;9.85;3.75;;;;;;;27.51;44.48;100992.63;6313552;28;20184;-76
2021/06/29 13:13:17;;;;;;;3.60;3.20;;;;;;;27.65;43.87;100987.75;6313789;28;20202;-76
2021/06/29 13:16:23;;;;;;;4.25;3.30;;;;;;;27.59;43.78;100995.47;6312991;28;20241;-76
2021/06/29 13:19:27;;;;;;;7.50;3.03;;;;;;;27.65;43.28;100976.53;6312920;28;20252;-75
2021/06/29 13:22:39;;;;;;;5.47;4.53;;;;;;;27.72;44.51;100976.84;6300802;28;20243;-75
2021/06/29 13:25:44;;;;;;;55.50;34.67;;;;;;;27.73;44.82;100967.31;6288255;28;20200;-75
2021/06/29 13:29:08;;;;;;;20.98;14.30;;;;;;;27.72;44.26;100972.09;6286829;28;20207;-75
2021/06/29 13:32:20;;;;;;;16.70;11.68;;;;;;;27.64;43.71;100960.84;6270362;28;20212;-75
2021/06/29 13:35:24;;;;;;;26.40;15.05;;;;;;;27.52;43.37;100971.88;6287653;28;20191;-75
2021/06/29 13:38:29;;;;;;;6.97;3.58;;;;;;;27.72;43.53;100965.66;6285626;28;20279;-76
2021/06/29 13:41:35;;;;;;;5.65;3.50;;;;;;;27.69;44.35;100957.88;6287502;28;20262;-76
2021/06/29 13:44:53;;;;;;;5.57;4.05;;;;;;;27.73;44.55;100958.91;6287679;28;20191;-75
2021/06/29 13:47:59;;;;;;;3.92;3.83;;;;;;;27.99;43.79;100954.13;6287585;28;20188;-75
2021/06/29 13:51:19;;;;;;;3.70;3.50;;;;;;;28.37;42.06;100943.88;6286520;28;20371;-76
2021/06/29 13:54:24;;;;;;;3.88;3.50;;;;;;;29.57;40.84;100942.53;6286249;28;20191;-75
2021/06/29 13:57:28;;;;;;;4.35;3.80;;;;;;;30.60;38.26;100948.09;6287399;28;20184;-76
2021/06/29 14:00:42;;;;;;;3.38;3.08;;;;;;;29.99;37.39;100949.03;6287383;28;20216;-76
2021/06/29 14:04:01;;;;;;;5.00;3.30;;;;;;;30.33;37.76;100931.78;6287468;28;20191;-76
2021/06/29 14:07:08;;;;;;;2.60;2.50;;;;;;;30.76;35.04;100937.81;6285951;28;20490;-76
2021/06/29 14:10:24;;;;;;;2.78;2.60;;;;;;;31.19;35.41;100926.00;6285953;28;20522;-76
2021/06/29 14:13:30;;;;;;;3.15;3.00;;;;;;;32.21;33.72;100934.00;6287060;28;20250;-76
2021/06/29 14:16:34;;;;;;;2.97;2.78;;;;;;;32.41;33.59;100932.16;6287303;28;20207;-75
2021/06/29 14:19:40;;;;;;;5.45;3.08;;;;;;;31.36;34.81;100936.19;6285962;28;20439;-75
2021/06/29 14:22:44;;;;;;;3.35;3.05;;;;;;;30.64;36.54;100937.78;6300352;28;20311;-75
2021/06/29 14:25:48;;;;;;;3.50;3.03;;;;;;;29.84;39.09;100929.97;6310317;28;20414;-75
2021/06/29 14:28:52;;;;;;;3.28;3.00;;;;;;;29.59;39.89;100935.41;6311701;28;20259;-75